Terminal Aerodrome Forecast
Issued by NWS Newport/Morehead City, NC

Home | Current Version | Previous Version | Text Only | Print | Product List | Glossary Off
Versions: 1 2 3 4 5 6 7 8 9 10 11 12 13 14 15 16 17 18 19 20 21 22

000
FTUS42 KMHX 200255 AAA
TAFEWN
TAF AMD
KEWN 200255Z 2003/2024 VRB03KT 5SM BR SKC
      TEMPO 2003/2006 1SM BR VV005
     FM200800 VRB02KT 2SM BR SCT005
     FM201200 VRB05KT P6SM SCT050=

USA.gov is the U.S. government's official web portal to all federal, state and local government web resources and services.